sensor_id;sensor_type;location;lat;lon;timestamp;P1;P2;P0
72509;PMS5003;60532;56.114;40.350;2023-03-04T00:01:28;18.00;12.00;5.50
72509;PMS5003;60532;56.114;40.350;2023-03-04T00:03:28;19.00;15.67;8.33
72509;PMS5003;60532;56.114;40.350;2023-03-04T00:05:29;16.67;12.67;7.33
72509;PMS5003;60532;56.114;40.350;2023-03-04T00:07:30;13.50;8.75;4.00
72509;PMS5003;60532;56.114;40.350;2023-03-04T00:09:31;15.33;14.00;8.00
72509;PMS5003;60532;56.114;40.350;2023-03-04T00:11:31;17.33;14.33;7.33
72509;PMS5003;60532;56.114;40.350;2023-03-04T00:13:32;16.67;12.33;6.33
72509;PMS5003;60532;56.114;40.350;2023-03-04T00:15:32;12.00;8.00;6.33
72509;PMS5003;60532;56.114;40.350;2023-03-04T00:17:33;17.00;13.33;8.00
72509;PMS5003;60532;56.114;40.350;2023-03-04T00:19:33;21.33;14.67;6.67
72509;PMS5003;60532;56.114;40.350;2023-03-04T00:21:34;15.75;15.75;8.00
72509;PMS5003;60532;56.114;40.350;2023-03-04T00:23:35;11.67;11.00;6.33
72509;PMS5003;60532;56.114;40.350;2023-03-04T00:25:35;14.33;12.67;7.67
72509;PMS5003;60532;56.114;40.350;2023-03-04T00:27:36;15.67;12.33;8.00
72509;PMS5003;60532;56.114;40.350;2023-03-04T00:29:36;20.33;15.00;8.67
72509;PMS5003;60532;56.114;40.350;2023-03-04T00:31:37;16.67;11.00;5.00
72509;PMS5003;60532;56.114;40.350;2023-03-04T00:33:37;15.00;14.00;7.00
72509;PMS5003;60532;56.114;40.350;2023-03-04T00:35:39;15.00;12.00;7.00
72509;PMS5003;60532;56.114;40.350;2023-03-04T00:37:40;15.00;12.33;6.33
72509;PMS5003;60532;56.114;40.350;2023-03-04T00:39:40;18.67;16.00;7.67
72509;PMS5003;60532;56.114;40.350;2023-03-04T00:41:41;11.00;11.00;5.67
72509;PMS5003;60532;56.114;40.350;2023-03-04T00:43:41;18.67;15.00;7.00
72509;PMS5003;60532;56.114;40.350;2023-03-04T00:45:42;20.33;14.33;7.33
72509;PMS5003;60532;56.114;40.350;2023-03-04T00:47:42;18.33;14.00;7.00
72509;PMS5003;60532;56.114;40.350;2023-03-04T00:49:43;18.67;14.67;6.67
72509;PMS5003;60532;56.114;40.350;2023-03-04T00:51:43;18.00;13.67;6.33
72509;PMS5003;60532;56.114;40.350;2023-03-04T00:53:44;13.00;11.33;4.00
72509;PMS5003;60532;56.114;40.350;2023-03-04T00:55:44;14.67;14.67;8.33
72509;PMS5003;60532;56.114;40.350;2023-03-04T00:57:45;11.67;9.00;2.00
72509;PMS5003;60532;56.114;40.350;2023-03-04T00:59:45;23.00;14.33;7.00
72509;PMS5003;60532;56.114;40.350;2023-03-04T01:01:46;15.00;9.67;2.00
72509;PMS5003;60532;56.114;40.350;2023-03-04T01:03:46;17.00;12.67;7.00
72509;PMS5003;60532;56.114;40.350;2023-03-04T01:05:47;14.67;13.00;4.00
72509;PMS5003;60532;56.114;40.350;2023-03-04T01:07:47;11.67;9.00;5.00
72509;PMS5003;60532;56.114;40.350;2023-03-04T01:09:48;19.00;12.67;7.67
72509;PMS5003;60532;56.114;40.350;2023-03-04T01:11:48;15.33;12.67;7.00
72509;PMS5003;60532;56.114;40.350;2023-03-04T01:13:49;15.33;12.67;7.33
72509;PMS5003;60532;56.114;40.350;2023-03-04T01:15:49;15.00;14.00;7.00
72509;PMS5003;60532;56.114;40.350;2023-03-04T01:17:50;16.00;16.00;7.67
72509;PMS5003;60532;56.114;40.350;2023-03-04T01:19:50;15.00;12.33;7.00
72509;PMS5003;60532;56.114;40.350;2023-03-04T01:21:51;16.33;14.33;8.33
72509;PMS5003;60532;56.114;40.350;2023-03-04T01:23:51;21.00;14.33;5.67
72509;PMS5003;60532;56.114;40.350;2023-03-04T01:25:52;14.00;11.67;7.00
72509;PMS5003;60532;56.114;40.350;2023-03-04T01:27:53;14.67;12.67;7.00
72509;PMS5003;60532;56.114;40.350;2023-03-04T01:29:53;20.33;16.00;7.00
72509;PMS5003;60532;56.114;40.350;2023-03-04T01:31:54;14.33;14.00;7.00
72509;PMS5003;60532;56.114;40.350;2023-03-04T01:33:54;20.33;14.00;8.00
72509;PMS5003;60532;56.114;40.350;2023-03-04T01:35:55;14.33;14.33;7.00
72509;PMS5003;60532;56.114;40.350;2023-03-04T01:37:56;15.75;12.75;7.50
72509;PMS5003;60532;56.114;40.350;2023-03-04T01:39:57;17.00;12.67;8.00
72509;PMS5003;60532;56.114;40.350;2023-03-04T01:41:57;22.00;12.67;7.00
72509;PMS5003;60532;56.114;40.350;2023-03-04T01:43:58;10.00;8.67;2.67
72509;PMS5003;60532;56.114;40.350;2023-03-04T01:46:02;18.50;12.25;7.00
72509;PMS5003;60532;56.114;40.350;2023-03-04T01:48:03;12.00;7.33;1.00
72509;PMS5003;60532;56.114;40.350;2023-03-04T01:50:05;15.67;11.00;5.00
72509;PMS5003;60532;56.114;40.350;2023-03-04T01:52:13;13.75;13.25;8.25
72509;PMS5003;60532;56.114;40.350;2023-03-04T01:54:14;13.00;8.50;1.00
72509;PMS5003;60532;56.114;40.350;2023-03-04T01:56:18;17.25;12.75;5.00
72509;PMS5003;60532;56.114;40.350;2023-03-04T01:58:19;14.50;8.50;1.25
72509;PMS5003;60532;56.114;40.350;2023-03-04T02:00:28;11.67;9.00;1.33
72509;PMS5003;60532;56.114;40.350;2023-03-04T02:02:30;13.50;11.75;6.00
72509;PMS5003;60532;56.114;40.350;2023-03-04T02:04:31;13.33;10.33;2.67
72509;PMS5003;60532;56.114;40.350;2023-03-04T02:06:34;12.50;10.00;4.00
72509;PMS5003;60532;56.114;40.350;2023-03-04T02:08:34;17.00;11.25;5.00
72509;PMS5003;60532;56.114;40.350;2023-03-04T02:10:35;9.33;5.67;2.00
72509;PMS5003;60532;56.114;40.350;2023-03-04T02:12:36;13.33;10.67;5.67
72509;PMS5003;60532;56.114;40.350;2023-03-04T02:14:37;18.00;11.00;4.00
72509;PMS5003;60532;56.114;40.350;2023-03-04T02:16:38;17.00;12.50;5.00
72509;PMS5003;60532;56.114;40.350;2023-03-04T02:18:39;18.33;11.33;4.67
72509;PMS5003;60532;56.114;40.350;2023-03-04T02:22:50;13.75;12.50;7.00
72509;PMS5003;60532;56.114;40.350;2023-03-04T02:24:58;18.75;14.25;7.50
72509;PMS5003;60532;56.114;40.350;2023-03-04T02:26:59;11.50;8.00;4.00
72509;PMS5003;60532;56.114;40.350;2023-03-04T02:29:00;17.33;11.00;5.67
72509;PMS5003;60532;56.114;40.350;2023-03-04T02:31:01;13.50;12.00;5.00
72509;PMS5003;60532;56.114;40.350;2023-03-04T02:33:01;13.33;9.67;5.00
72509;PMS5003;60532;56.114;40.350;2023-03-04T02:35:02;12.67;8.67;5.00
72509;PMS5003;60532;56.114;40.350;2023-03-04T02:37:03;15.33;10.33;5.00
72509;PMS5003;60532;56.114;40.350;2023-03-04T02:39:04;5.67;5.00;1.00
72509;PMS5003;60532;56.114;40.350;2023-03-04T02:41:07;12.00;11.75;5.00
72509;PMS5003;60532;56.114;40.350;2023-03-04T02:43:11;17.75;13.50;4.50
72509;PMS5003;60532;56.114;40.350;2023-03-04T02:45:31;17.00;14.00;7.00
72509;PMS5003;60532;56.114;40.350;2023-03-04T02:47:34;23.00;12.00;7.00
72509;PMS5003;60532;56.114;40.350;2023-03-04T02:49:36;16.33;11.67;7.00
72509;PMS5003;60532;56.114;40.350;2023-03-04T02:51:37;13.75;13.75;5.50
72509;PMS5003;60532;56.114;40.350;2023-03-04T02:53:37;9.25;8.25;3.50
72509;PMS5003;60532;56.114;40.350;2023-03-04T02:55:38;13.67;13.33;5.00
72509;PMS5003;60532;56.114;40.350;2023-03-04T02:57:38;12.00;10.33;7.00
72509;PMS5003;60532;56.114;40.350;2023-03-04T02:59:39;11.00;9.00;4.00
72509;PMS5003;60532;56.114;40.350;2023-03-04T03:01:40;19.25;14.25;6.50
72509;PMS5003;60532;56.114;40.350;2023-03-04T03:03:41;12.00;9.00;5.00
72509;PMS5003;60532;56.114;40.350;2023-03-04T03:05:41;15.00;11.33;5.00
72509;PMS5003;60532;56.114;40.350;2023-03-04T03:07:42;18.67;12.00;5.67
72509;PMS5003;60532;56.114;40.350;2023-03-04T03:09:42;15.00;9.33;5.00
72509;PMS5003;60532;56.114;40.350;2023-03-04T03:11:43;11.33;8.67;4.33
72509;PMS5003;60532;56.114;40.350;2023-03-04T03:13:43;17.00;11.00;4.67
72509;PMS5003;60532;56.114;40.350;2023-03-04T03:15:44;19.00;11.00;5.67
72509;PMS5003;60532;56.114;40.350;2023-03-04T03:17:44;17.67;12.00;5.00
72509;PMS5003;60532;56.114;40.350;2023-03-04T03:19:45;14.33;11.00;7.00
72509;PMS5003;60532;56.114;40.350;2023-03-04T03:21:45;18.00;15.00;7.33
72509;PMS5003;60532;56.114;40.350;2023-03-04T03:23:46;14.33;12.00;5.67
72509;PMS5003;60532;56.114;40.350;2023-03-04T03:25:47;16.33;9.33;4.00
72509;PMS5003;60532;56.114;40.350;2023-03-04T03:27:47;18.00;15.00;7.00
72509;PMS5003;60532;56.114;40.350;2023-03-04T03:29:47;21.00;14.00;5.67
72509;PMS5003;60532;56.114;40.350;2023-03-04T03:31:48;17.67;10.33;5.00
72509;PMS5003;60532;56.114;40.350;2023-03-04T03:33:48;10.33;9.00;5.00
72509;PMS5003;60532;56.114;40.350;2023-03-04T03:35:49;25.00;18.67;7.00
72509;PMS5003;60532;56.114;40.350;2023-03-04T03:37:49;21.33;15.00;7.67
72509;PMS5003;60532;56.114;40.350;2023-03-04T03:39:50;20.67;14.67;7.00
72509;PMS5003;60532;56.114;40.350;2023-03-04T03:41:50;18.00;12.00;7.00
72509;PMS5003;60532;56.114;40.350;2023-03-04T03:43:51;9.67;7.33;2.00
72509;PMS5003;60532;56.114;40.350;2023-03-04T03:45:51;9.00;7.67;2.00
72509;PMS5003;60532;56.114;40.350;2023-03-04T03:47:52;16.67;14.00;7.00
72509;PMS5003;60532;56.114;40.350;2023-03-04T03:49:52;14.00;11.67;5.00
72509;PMS5003;60532;56.114;40.350;2023-03-04T03:51:53;11.33;9.67;4.00
72509;PMS5003;60532;56.114;40.350;2023-03-04T03:53:53;13.33;13.33;5.00
72509;PMS5003;60532;56.114;40.350;2023-03-04T03:55:54;14.33;10.67;3.33
72509;PMS5003;60532;56.114;40.350;2023-03-04T03:57:54;18.00;12.67;4.00
72509;PMS5003;60532;56.114;40.350;2023-03-04T03:59:55;17.33;14.00;7.00
72509;PMS5003;60532;56.114;40.350;2023-03-04T04:01:55;22.67;14.67;7.00
72509;PMS5003;60532;56.114;40.350;2023-03-04T04:03:56;20.33;15.67;7.33
72509;PMS5003;60532;56.114;40.350;2023-03-04T04:05:56;21.33;14.67;7.00
72509;PMS5003;60532;56.114;40.350;2023-03-04T04:07:57;19.00;13.67;7.67
72509;PMS5003;60532;56.114;40.350;2023-03-04T04:09:57;25.67;12.00;8.00
72509;PMS5003;60532;56.114;40.350;2023-03-04T04:11:58;18.67;14.33;8.00
72509;PMS5003;60532;56.114;40.350;2023-03-04T04:13:58;16.33;14.00;7.00
72509;PMS5003;60532;56.114;40.350;2023-03-04T04:15:58;18.00;15.00;8.00
72509;PMS5003;60532;56.114;40.350;2023-03-04T04:17:59;17.67;17.00;7.33
72509;PMS5003;60532;56.114;40.350;2023-03-04T04:19:59;18.67;14.33;7.00
72509;PMS5003;60532;56.114;40.350;2023-03-04T04:22:00;17.67;14.00;8.00
72509;PMS5003;60532;56.114;40.350;2023-03-04T04:24:01;17.67;14.00;8.00
72509;PMS5003;60532;56.114;40.350;2023-03-04T04:26:01;16.33;15.33;7.33
72509;PMS5003;60532;56.114;40.350;2023-03-04T04:28:02;21.00;17.33;7.33
72509;PMS5003;60532;56.114;40.350;2023-03-04T04:30:03;17.33;12.00;7.00
72509;PMS5003;60532;56.114;40.350;2023-03-04T04:32:04;24.25;15.25;6.50
72509;PMS5003;60532;56.114;40.350;2023-03-04T04:34:04;22.33;17.33;8.00
72509;PMS5003;60532;56.114;40.350;2023-03-04T04:36:05;18.00;16.33;7.00
72509;PMS5003;60532;56.114;40.350;2023-03-04T04:38:06;13.67;10.33;5.67
72509;PMS5003;60532;56.114;40.350;2023-03-04T04:40:07;20.33;17.33;8.00
72509;PMS5003;60532;56.114;40.350;2023-03-04T04:42:08;13.75;13.75;8.00
72509;PMS5003;60532;56.114;40.350;2023-03-04T04:44:10;14.75;11.75;4.00
72509;PMS5003;60532;56.114;40.350;2023-03-04T04:46:10;8.25;8.25;2.00
72509;PMS5003;60532;56.114;40.350;2023-03-04T04:48:11;15.33;14.33;7.00
72509;PMS5003;60532;56.114;40.350;2023-03-04T04:50:11;18.33;13.67;8.33
72509;PMS5003;60532;56.114;40.350;2023-03-04T04:52:12;16.00;10.67;5.67
72509;PMS5003;60532;56.114;40.350;2023-03-04T04:54:13;13.67;10.33;5.67
72509;PMS5003;60532;56.114;40.350;2023-03-04T04:56:14;14.75;11.25;5.50
72509;PMS5003;60532;56.114;40.350;2023-03-04T04:58:15;18.00;15.25;8.00
72509;PMS5003;60532;56.114;40.350;2023-03-04T05:00:16;17.33;17.33;9.33
72509;PMS5003;60532;56.114;40.350;2023-03-04T05:02:18;21.50;17.00;8.50
72509;PMS5003;60532;56.114;40.350;2023-03-04T05:04:18;17.67;11.00;4.00
72509;PMS5003;60532;56.114;40.350;2023-03-04T05:06:19;14.67;14.00;8.00
72509;PMS5003;60532;56.114;40.350;2023-03-04T05:08:20;19.25;15.00;7.50
72509;PMS5003;60532;56.114;40.350;2023-03-04T05:10:20;17.33;14.33;7.00
72509;PMS5003;60532;56.114;40.350;2023-03-04T05:12:21;24.00;16.33;8.33
72509;PMS5003;60532;56.114;40.350;2023-03-04T05:14:21;21.67;18.67;9.67
72509;PMS5003;60532;56.114;40.350;2023-03-04T05:16:22;17.67;16.33;8.33
72509;PMS5003;60532;56.114;40.350;2023-03-04T05:18:23;20.00;18.00;8.33
72509;PMS5003;60532;56.114;40.350;2023-03-04T05:20:24;16.75;11.75;9.00
72509;PMS5003;60532;56.114;40.350;2023-03-04T05:22:26;20.50;16.00;7.00
72509;PMS5003;60532;56.114;40.350;2023-03-04T05:24:26;17.00;13.33;8.00
72509;PMS5003;60532;56.114;40.350;2023-03-04T05:26:27;26.67;19.00;9.00
72509;PMS5003;60532;56.114;40.350;2023-03-04T05:28:27;21.67;20.67;10.00
72509;PMS5003;60532;56.114;40.350;2023-03-04T05:30:28;23.00;20.33;9.33
72509;PMS5003;60532;56.114;40.350;2023-03-04T05:32:28;23.33;22.67;14.00
72509;PMS5003;60532;56.114;40.350;2023-03-04T05:34:29;26.00;20.33;9.00
72509;PMS5003;60532;56.114;40.350;2023-03-04T05:36:29;21.33;17.67;8.33
72509;PMS5003;60532;56.114;40.350;2023-03-04T05:38:30;13.33;13.33;9.00
72509;PMS5003;60532;56.114;40.350;2023-03-04T05:40:30;24.67;16.33;8.00
72509;PMS5003;60532;56.114;40.350;2023-03-04T05:42:31;21.00;14.67;7.67
72509;PMS5003;60532;56.114;40.350;2023-03-04T05:44:31;26.00;19.00;10.33
72509;PMS5003;60532;56.114;40.350;2023-03-04T05:46:32;19.67;15.67;8.33
72509;PMS5003;60532;56.114;40.350;2023-03-04T05:48:32;26.00;19.00;11.33
72509;PMS5003;60532;56.114;40.350;2023-03-04T05:50:33;16.00;15.00;8.00
72509;PMS5003;60532;56.114;40.350;2023-03-04T05:52:34;27.67;22.67;10.33
72509;PMS5003;60532;56.114;40.350;2023-03-04T05:54:34;20.33;18.00;7.00
72509;PMS5003;60532;56.114;40.350;2023-03-04T05:56:35;23.00;19.00;11.00
72509;PMS5003;60532;56.114;40.350;2023-03-04T05:58:35;22.33;19.00;8.67
72509;PMS5003;60532;56.114;40.350;2023-03-04T06:00:36;18.00;14.00;7.33
72509;PMS5003;60532;56.114;40.350;2023-03-04T06:02:36;28.33;18.00;9.00
72509;PMS5003;60532;56.114;40.350;2023-03-04T06:04:37;28.00;21.67;9.00
72509;PMS5003;60532;56.114;40.350;2023-03-04T06:06:37;18.33;16.00;9.00
72509;PMS5003;60532;56.114;40.350;2023-03-04T06:08:38;21.67;17.00;11.00
72509;PMS5003;60532;56.114;40.350;2023-03-04T06:10:39;21.67;16.33;10.67
72509;PMS5003;60532;56.114;40.350;2023-03-04T06:12:40;20.00;14.00;7.50
72509;PMS5003;60532;56.114;40.350;2023-03-04T06:14:40;18.67;16.67;8.00
72509;PMS5003;60532;56.114;40.350;2023-03-04T06:16:41;26.75;21.75;8.75
72509;PMS5003;60532;56.114;40.350;2023-03-04T06:18:42;23.67;16.33;7.67
72509;PMS5003;60532;56.114;40.350;2023-03-04T06:20:42;21.33;19.00;8.00
72509;PMS5003;60532;56.114;40.350;2023-03-04T06:22:44;21.75;15.50;9.00
72509;PMS5003;60532;56.114;40.350;2023-03-04T06:24:44;23.00;19.00;9.00
72509;PMS5003;60532;56.114;40.350;2023-03-04T06:26:45;26.33;18.33;11.33
72509;PMS5003;60532;56.114;40.350;2023-03-04T06:28:48;11.50;10.25;3.00
72509;PMS5003;60532;56.114;40.350;2023-03-04T06:30:52;22.67;19.33;8.00
72509;PMS5003;60532;56.114;40.350;2023-03-04T06:32:53;25.25;21.75;9.50
72509;PMS5003;60532;56.114;40.350;2023-03-04T06:34:53;21.67;17.67;10.33
72509;PMS5003;60532;56.114;40.350;2023-03-04T06:36:54;25.67;24.33;11.00
72509;PMS5003;60532;56.114;40.350;2023-03-04T06:38:55;21.33;19.00;9.00
72509;PMS5003;60532;56.114;40.350;2023-03-04T06:40:55;28.67;22.33;11.00
72509;PMS5003;60532;56.114;40.350;2023-03-04T06:42:56;24.33;18.00;11.33
72509;PMS5003;60532;56.114;40.350;2023-03-04T06:44:56;26.33;21.67;14.00
72509;PMS5003;60532;56.114;40.350;2023-03-04T06:46:57;32.00;22.67;12.00
72509;PMS5003;60532;56.114;40.350;2023-03-04T06:48:57;19.00;16.67;11.00
72509;PMS5003;60532;56.114;40.350;2023-03-04T06:51:03;32.33;23.00;10.67
72509;PMS5003;60532;56.114;40.350;2023-03-04T06:53:03;31.75;21.00;10.50
72509;PMS5003;60532;56.114;40.350;2023-03-04T06:55:04;28.00;23.00;13.00
72509;PMS5003;60532;56.114;40.350;2023-03-04T06:57:06;25.25;21.00;11.50
72509;PMS5003;60532;56.114;40.350;2023-03-04T06:59:06;25.75;19.75;12.00
72509;PMS5003;60532;56.114;40.350;2023-03-04T07:01:17;29.33;19.67;11.00
72509;PMS5003;60532;56.114;40.350;2023-03-04T07:03:17;25.75;22.25;12.25
72509;PMS5003;60532;56.114;40.350;2023-03-04T07:05:18;27.00;23.00;12.00
72509;PMS5003;60532;56.114;40.350;2023-03-04T07:07:19;14.33;13.00;8.67
72509;PMS5003;60532;56.114;40.350;2023-03-04T07:09:19;16.33;15.67;8.00
72509;PMS5003;60532;56.114;40.350;2023-03-04T07:11:20;24.67;23.33;10.67
72509;PMS5003;60532;56.114;40.350;2023-03-04T07:13:21;28.25;21.25;12.00
72509;PMS5003;60532;56.114;40.350;2023-03-04T07:15:21;31.33;25.33;12.00
72509;PMS5003;60532;56.114;40.350;2023-03-04T07:17:22;24.67;22.00;12.00
72509;PMS5003;60532;56.114;40.350;2023-03-04T07:19:23;32.67;23.33;11.67
72509;PMS5003;60532;56.114;40.350;2023-03-04T07:21:23;26.33;22.33;11.67
72509;PMS5003;60532;56.114;40.350;2023-03-04T07:23:24;28.00;22.33;13.00
72509;PMS5003;60532;56.114;40.350;2023-03-04T07:25:24;24.33;21.00;11.00
72509;PMS5003;60532;56.114;40.350;2023-03-04T07:27:25;28.67;22.00;9.67
72509;PMS5003;60532;56.114;40.350;2023-03-04T07:29:26;22.67;21.33;12.00
72509;PMS5003;60532;56.114;40.350;2023-03-04T07:31:27;20.00;18.00;8.67
72509;PMS5003;60532;56.114;40.350;2023-03-04T07:33:28;24.25;18.75;9.00
72509;PMS5003;60532;56.114;40.350;2023-03-04T07:35:29;24.00;14.33;10.33
72509;PMS5003;60532;56.114;40.350;2023-03-04T07:37:29;20.67;19.33;10.33
72509;PMS5003;60532;56.114;40.350;2023-03-04T07:39:30;25.00;16.67;7.33
72509;PMS5003;60532;56.114;40.350;2023-03-04T07:41:30;21.33;19.00;11.00
72509;PMS5003;60532;56.114;40.350;2023-03-04T07:43:31;14.25;11.75;8.00
72509;PMS5003;60532;56.114;40.350;2023-03-04T07:45:32;23.00;20.00;11.33
72509;PMS5003;60532;56.114;40.350;2023-03-04T07:47:32;18.00;17.67;10.33
72509;PMS5003;60532;56.114;40.350;2023-03-04T07:49:33;21.00;19.33;8.33
72509;PMS5003;60532;56.114;40.350;2023-03-04T07:51:33;21.00;17.33;9.00
72509;PMS5003;60532;56.114;40.350;2023-03-04T07:53:35;18.25;17.25;8.25
72509;PMS5003;60532;56.114;40.350;2023-03-04T07:55:36;25.25;20.25;8.00
72509;PMS5003;60532;56.114;40.350;2023-03-04T07:57:43;22.33;15.33;10.00
72509;PMS5003;60532;56.114;40.350;2023-03-04T07:59:44;17.25;16.00;8.75
72509;PMS5003;60532;56.114;40.350;2023-03-04T08:01:44;19.00;15.67;9.33
72509;PMS5003;60532;56.114;40.350;2023-03-04T08:03:45;25.67;21.00;9.33
72509;PMS5003;60532;56.114;40.350;2023-03-04T08:05:45;16.00;12.67;6.00
72509;PMS5003;60532;56.114;40.350;2023-03-04T08:07:46;18.33;17.00;9.00
72509;PMS5003;60532;56.114;40.350;2023-03-04T08:09:46;19.00;13.67;9.00
72509;PMS5003;60532;56.114;40.350;2023-03-04T08:11:47;16.67;13.33;6.00
72509;PMS5003;60532;56.114;40.350;2023-03-04T08:13:48;16.67;14.33;7.33
72509;PMS5003;60532;56.114;40.350;2023-03-04T08:15:48;20.33;17.33;8.67
72509;PMS5003;60532;56.114;40.350;2023-03-04T08:17:49;21.00;15.33;8.00
72509;PMS5003;60532;56.114;40.350;2023-03-04T08:19:49;14.00;12.00;5.00
72509;PMS5003;60532;56.114;40.350;2023-03-04T08:21:50;24.67;20.00;11.33
72509;PMS5003;60532;56.114;40.350;2023-03-04T08:23:50;25.67;20.67;9.33
72509;PMS5003;60532;56.114;40.350;2023-03-04T08:25:51;20.50;16.00;8.00
72509;PMS5003;60532;56.114;40.350;2023-03-04T08:27:52;15.33;13.00;8.00
72509;PMS5003;60532;56.114;40.350;2023-03-04T08:29:52;12.67;12.00;6.00
72509;PMS5003;60532;56.114;40.350;2023-03-04T08:31:53;20.33;14.00;8.67
72509;PMS5003;60532;56.114;40.350;2023-03-04T08:33:54;17.50;13.50;7.50
72509;PMS5003;60532;56.114;40.350;2023-03-04T08:35:55;20.00;14.50;8.00
72509;PMS5003;60532;56.114;40.350;2023-03-04T08:37:56;14.67;13.33;5.33
72509;PMS5003;60532;56.114;40.350;2023-03-04T08:39:56;18.33;14.67;8.00
72509;PMS5003;60532;56.114;40.350;2023-03-04T08:41:57;19.67;17.00;8.00
72509;PMS5003;60532;56.114;40.350;2023-03-04T08:43:58;15.67;12.67;7.33
72509;PMS5003;60532;56.114;40.350;2023-03-04T08:45:58;9.50;9.50;6.00
72509;PMS5003;60532;56.114;40.350;2023-03-04T08:47:59;9.00;9.00;6.00
72509;PMS5003;60532;56.114;40.350;2023-03-04T08:49:59;13.33;7.33;5.33
72509;PMS5003;60532;56.114;40.350;2023-03-04T08:52:00;20.00;16.00;9.00
72509;PMS5003;60532;56.114;40.350;2023-03-04T08:54:01;20.00;14.67;6.67
72509;PMS5003;60532;56.114;40.350;2023-03-04T08:56:02;14.25;12.00;7.50
72509;PMS5003;60532;56.114;40.350;2023-03-04T08:58:02;20.67;13.00;8.33
72509;PMS5003;60532;56.114;40.350;2023-03-04T09:00:03;18.67;13.67;6.00
72509;PMS5003;60532;56.114;40.350;2023-03-04T09:02:04;11.67;11.00;6.00
72509;PMS5003;60532;56.114;40.350;2023-03-04T09:04:04;13.33;13.00;7.33
72509;PMS5003;60532;56.114;40.350;2023-03-04T09:06:05;14.67;12.00;6.00
72509;PMS5003;60532;56.114;40.350;2023-03-04T09:08:06;16.00;11.25;6.50
72509;PMS5003;60532;56.114;40.350;2023-03-04T09:10:07;17.75;16.00;7.25
72509;PMS5003;60532;56.114;40.350;2023-03-04T09:12:08;14.33;13.33;6.00
72509;PMS5003;60532;56.114;40.350;2023-03-04T09:14:08;16.67;12.33;6.00
72509;PMS5003;60532;56.114;40.350;2023-03-04T09:16:09;11.67;10.67;5.67
72509;PMS5003;60532;56.114;40.350;2023-03-04T09:18:10;14.75;12.00;6.50
72509;PMS5003;60532;56.114;40.350;2023-03-04T09:20:11;14.33;13.33;6.00
72509;PMS5003;60532;56.114;40.350;2023-03-04T09:22:12;9.50;9.50;6.00
72509;PMS5003;60532;56.114;40.350;2023-03-04T09:24:12;20.00;11.67;5.00
72509;PMS5003;60532;56.114;40.350;2023-03-04T09:26:14;10.00;10.00;6.67
72509;PMS5003;60532;56.114;40.350;2023-03-04T09:28:16;12.75;10.00;5.00
72509;PMS5003;60532;56.114;40.350;2023-03-04T09:30:16;15.00;14.25;6.50
72509;PMS5003;60532;56.114;40.350;2023-03-04T09:32:17;17.33;13.00;5.67
72509;PMS5003;60532;56.114;40.350;2023-03-04T09:34:18;11.00;11.00;6.00
72509;PMS5003;60532;56.114;40.350;2023-03-04T09:36:18;15.67;12.33;5.00
72509;PMS5003;60532;56.114;40.350;2023-03-04T09:38:19;17.67;14.00;7.67
72509;PMS5003;60532;56.114;40.350;2023-03-04T09:40:20;20.00;14.33;6.00
72509;PMS5003;60532;56.114;40.350;2023-03-04T09:42:24;16.00;15.00;6.75
72509;PMS5003;60532;56.114;40.350;2023-03-04T09:46:33;10.50;6.50;2.50
72509;PMS5003;60532;56.114;40.350;2023-03-04T09:48:38;17.00;14.00;5.50
72509;PMS5003;60532;56.114;40.350;2023-03-04T09:50:40;17.75;13.75;6.25
72509;PMS5003;60532;56.114;40.350;2023-03-04T09:59:31;18.25;18.25;6.50
72509;PMS5003;60532;56.114;40.350;2023-03-04T10:04:05;18.50;14.00;6.00
72509;PMS5003;60532;56.114;40.350;2023-03-04T10:06:12;18.75;14.00;6.00
72509;PMS5003;60532;56.114;40.350;2023-03-04T10:10:18;17.67;14.33;6.67
72509;PMS5003;60532;56.114;40.350;2023-03-04T10:12:21;14.75;14.75;9.00
72509;PMS5003;60532;56.114;40.350;2023-03-04T10:14:37;16.25;13.50;5.00
72509;PMS5003;60532;56.114;40.350;2023-03-04T10:16:41;14.75;12.00;5.00
72509;PMS5003;60532;56.114;40.350;2023-03-04T10:18:45;13.50;8.75;4.50
72509;PMS5003;60532;56.114;40.350;2023-03-04T10:20:53;11.25;9.75;3.50
72509;PMS5003;60532;56.114;40.350;2023-03-04T10:22:55;10.50;9.00;3.25
72509;PMS5003;60532;56.114;40.350;2023-03-04T10:24:58;20.25;12.00;5.00
72509;PMS5003;60532;56.114;40.350;2023-03-04T10:27:01;11.25;9.00;3.00
72509;PMS5003;60532;56.114;40.350;2023-03-04T10:29:04;10.00;8.50;4.50
72509;PMS5003;60532;56.114;40.350;2023-03-04T10:31:10;11.00;11.00;6.00
72509;PMS5003;60532;56.114;40.350;2023-03-04T10:33:12;10.00;9.00;3.25
72509;PMS5003;60532;56.114;40.350;2023-03-04T10:35:13;15.50;15.00;5.25
72509;PMS5003;60532;56.114;40.350;2023-03-04T10:37:13;27.67;20.33;5.33
72509;PMS5003;60532;56.114;40.350;2023-03-04T10:39:47;17.33;9.00;4.33
72509;PMS5003;60532;56.114;40.350;2023-03-04T10:41:42;27.50;14.25;6.50
72509;PMS5003;60532;56.114;40.350;2023-03-04T10:43:43;20.50;14.00;6.00
72509;PMS5003;60532;56.114;40.350;2023-03-04T10:45:51;21.75;12.25;5.00
72509;PMS5003;60532;56.114;40.350;2023-03-04T10:47:54;12.50;10.00;5.50
72509;PMS5003;60532;56.114;40.350;2023-03-04T10:50:02;12.50;9.00;3.25
72509;PMS5003;60532;56.114;40.350;2023-03-04T10:52:11;20.25;10.75;5.50
72509;PMS5003;60532;56.114;40.350;2023-03-04T10:56:34;13.00;9.00;4.00
72509;PMS5003;60532;56.114;40.350;2023-03-04T10:58:34;15.50;14.50;5.00
72509;PMS5003;60532;56.114;40.350;2023-03-04T11:00:35;24.00;13.67;5.67
72509;PMS5003;60532;56.114;40.350;2023-03-04T11:02:36;13.75;10.75;4.50
72509;PMS5003;60532;56.114;40.350;2023-03-04T11:04:36;22.33;15.00;5.00
72509;PMS5003;60532;56.114;40.350;2023-03-04T11:06:39;20.33;10.67;5.33
72509;PMS5003;60532;56.114;40.350;2023-03-04T11:08:40;25.25;14.50;5.00
72509;PMS5003;60532;56.114;40.350;2023-03-04T11:10:41;21.00;13.50;6.00
72509;PMS5003;60532;56.114;40.350;2023-03-04T11:12:43;18.00;13.50;5.00
72509;PMS5003;60532;56.114;40.350;2023-03-04T11:14:48;20.75;11.00;5.00
72509;PMS5003;60532;56.114;40.350;2023-03-04T11:16:56;19.25;10.50;3.00
72509;PMS5003;60532;56.114;40.350;2023-03-04T11:19:00;11.00;9.00;5.00
72509;PMS5003;60532;56.114;40.350;2023-03-04T11:21:03;11.50;9.75;3.50
72509;PMS5003;60532;56.114;40.350;2023-03-04T11:23:06;13.50;9.00;4.50
72509;PMS5003;60532;56.114;40.350;2023-03-04T11:25:16;8.25;6.00;1.00
72509;PMS5003;60532;56.114;40.350;2023-03-04T11:27:23;7.50;6.00;2.75
72509;PMS5003;60532;56.114;40.350;2023-03-04T11:29:37;6.75;5.50;2.00
72509;PMS5003;60532;56.114;40.350;2023-03-04T11:31:41;10.75;6.00;2.00
72509;PMS5003;60532;56.114;40.350;2023-03-04T11:36:11;8.75;7.25;3.75
72509;PMS5003;60532;56.114;40.350;2023-03-04T11:38:17;7.75;7.75;2.25
72509;PMS5003;60532;56.114;40.350;2023-03-04T11:40:28;19.00;11.00;4.50
72509;PMS5003;60532;56.114;40.350;2023-03-04T11:44:35;15.25;9.75;2.50